createdAt,value
2022-12-23T00:04:40.801Z,20.94983277591973
2022-12-23T00:11:00.480Z,20.070234113712374
2022-12-23T00:17:23.322Z,20.073578595317727
2022-12-23T00:29:21.120Z,19.648829431438127
2022-12-23T00:35:40.708Z,24.297658862876254
2022-12-23T00:41:59.883Z,19.712374581939798
2022-12-23T00:48:56.812Z,24.91304347826087
2022-12-23T01:00:13.180Z,24.337792642140467
2022-12-23T01:06:33.106Z,28.107023411371237
2022-12-23T01:12:52.875Z,25.77257525083612
2022-12-23T01:20:34.565Z,24.71571906354515
2022-12-23T01:26:53.796Z,23.93979933110368
2022-12-23T01:33:14.217Z,22.672240802675585
2022-12-23T01:43:55.663Z,20.889632107023413
2022-12-23T01:56:23.747Z,22.548494983277592
2022-12-23T02:08:54.960Z,25.123745819397993
2022-12-23T02:26:21.403Z,25.22742474916388
2022-12-23T02:32:41.076Z,28.615384615384617
2022-12-23T02:42:59.728Z,25.976588628762542
2022-12-23T02:50:33.303Z,20.963210702341136
2022-12-23T02:56:56.319Z,21.588628762541806
2022-12-23T03:03:16.751Z,20.986622073578594
2022-12-23T03:09:36.910Z,19.71571906354515
2022-12-23T03:19:43.450Z,22.86622073578595
2022-12-23T03:26:03.387Z,22.806020066889634
2022-12-23T03:33:42.479Z,26.013377926421406
2022-12-23T03:40:01.664Z,21.565217391304348
2022-12-23T03:46:23.287Z,21.785953177257525
2022-12-23T03:58:55.619Z,16.63545150501672
2022-12-23T04:05:15.566Z,19.51839464882943
2022-12-23T04:14:17.726Z,18.93645484949833
2022-12-23T04:20:37.334Z,18.57190635451505
2022-12-23T04:26:56.395Z,19.94314381270903
2022-12-23T04:33:39.934Z,27.88294314381271
2022-12-23T04:40:00.226Z,26.444816053511705
2022-12-23T04:52:18.512Z,26.812709030100333
2022-12-23T04:58:37.797Z,26.220735785953178
2022-12-23T05:04:58.618Z,24.73913043478261
2022-12-23T05:14:14.452Z,24.03010033444816
2022-12-23T05:22:08.039Z,25.20066889632107
2022-12-23T05:28:28.202Z,30.28428093645485
2022-12-23T05:36:16.326Z,31.809364548494983
2022-12-23T05:42:37.963Z,34.23411371237458
2022-12-23T05:56:29.175Z,37.381270903010034
2022-12-23T06:02:53.828Z,33.36789297658863
2022-12-23T06:09:19.936Z,36.919732441471574
2022-12-23T06:20:01.868Z,34.869565217391305
2022-12-23T06:27:28.825Z,34.719063545150505
2022-12-23T06:33:48.538Z,38.05351170568562
2022-12-23T06:41:57.259Z,41.38461538461539
2022-12-23T06:50:26.845Z,41.83946488294314
2022-12-23T06:56:46.217Z,38.76923076923077
2022-12-23T07:05:45.163Z,39.02675585284281
2022-12-23T07:13:32.135Z,36.953177257525084
2022-12-23T07:21:31.580Z,36.17056856187291
2022-12-23T07:27:51.301Z,36.17391304347826
2022-12-23T07:34:55.887Z,39.2943143812709
2022-12-23T07:41:16.078Z,37.408026755852845
2022-12-23T07:47:35.813Z,34.187290969899664
2022-12-23T07:53:59.557Z,36.42809364548495
2022-12-23T08:07:30.711Z,36.09364548494983
2022-12-23T08:13:54.893Z,33.98327759197324
2022-12-23T08:20:33.567Z,31.20066889632107
2022-12-23T08:26:56.667Z,29.103678929765888
2022-12-23T08:39:42.431Z,34.22742474916388
2022-12-23T08:46:05.166Z,34.31772575250836
2022-12-23T08:53:47.091Z,34.88628762541806
2022-12-23T09:01:53.455Z,33.51170568561873
2022-12-23T09:08:15.824Z,33.709030100334445
2022-12-23T09:15:51.184Z,33.40468227424749
2022-12-23T09:31:36.798Z,28.712374581939798
2022-12-23T09:38:00.726Z,27.759197324414714
2022-12-23T09:48:39.318Z,30.107023411371237
2022-12-23T09:56:23.262Z,28.59531772575251
2022-12-23T10:04:04.019Z,25.65886287625418
2022-12-23T10:10:29.636Z,28.107023411371237
2022-12-23T10:16:54.019Z,29.25083612040134
2022-12-23T10:23:18.519Z,29.47826086956522
2022-12-23T10:29:39.782Z,26.39464882943144
2022-12-23T10:41:38.513Z,25.040133779264213
2022-12-23T10:48:00.208Z,28.277591973244146
2022-12-23T11:01:27.596Z,26.327759197324415
2022-12-23T11:07:49.837Z,26.60200668896321
2022-12-23T11:18:56.858Z,32.4180602006689
2022-12-23T11:27:36.577Z,32.1438127090301
2022-12-23T11:33:59.429Z,32.23745819397993
2022-12-23T11:46:57.108Z,29.39464882943144
2022-12-23T12:01:16.139Z,26.548494983277592
2022-12-23T12:07:47.056Z,29.849498327759196
2022-12-23T12:26:16.322Z,27.08361204013378
2022-12-23T12:32:40.144Z,29.568561872909697
2022-12-23T12:44:59.185Z,25.759197324414714
2022-12-23T12:51:23.880Z,26.043478260869566
2022-12-23T12:57:46.551Z,26.45819397993311
2022-12-23T13:09:55.668Z,23.836120401337794
2022-12-23T13:16:20.087Z,23.076923076923077
2022-12-23T13:22:44.284Z,24.1438127090301
2022-12-23T13:29:35.006Z,22.23076923076923
2022-12-23T13:38:33.996Z,18.140468227424748
2022-12-23T13:44:56.783Z,16.698996655518396
2022-12-23T13:51:19.498Z,18.94983277591973
2022-12-23T13:57:46.216Z,19.301003344481604
2022-12-23T14:09:48.827Z,17.013377926421406
2022-12-23T14:20:59.460Z,18.103678929765888
2022-12-23T14:27:29.315Z,16.68896321070234
2022-12-23T14:39:59.007Z,16.2809364548495
2022-12-23T14:49:38.501Z,17.48829431438127
2022-12-23T15:10:54.017Z,14.702341137123746
2022-12-23T15:19:50.720Z,17.63545150501672
2022-12-23T15:26:11.933Z,15.836120401337793
2022-12-23T15:32:32.497Z,16.65886287625418
2022-12-23T15:38:52.549Z,14.173913043478262
2022-12-23T15:45:20.260Z,14.85953177257525
2022-12-23T15:52:09.469Z,15.74581939799331
2022-12-23T15:58:32.813Z,15.62876254180602
2022-12-23T16:04:54.639Z,17.107023411371237
2022-12-23T16:11:20.300Z,17.652173913043477
2022-12-23T16:20:40.119Z,19.993311036789297
2022-12-23T16:27:00.680Z,17.62876254180602
2022-12-23T16:33:22.618Z,17.28428093645485
2022-12-23T16:39:44.280Z,16.110367892976587
2022-12-23T16:56:09.135Z,17.54515050167224
2022-12-23T17:06:47.606Z,15.110367892976589
2022-12-23T17:13:07.473Z,16.334448160535118
2022-12-23T17:19:29.424Z,15.408026755852843
2022-12-23T17:25:48.813Z,17.13377926421405
2022-12-23T17:32:10.567Z,19.45819397993311
2022-12-23T17:38:30.092Z,16.732441471571907
2022-12-23T17:44:51.081Z,15.270903010033445
2022-12-23T18:06:05.592Z,18.63545150501672
2022-12-23T18:24:19.165Z,15.62876254180602
2022-12-23T18:30:39.743Z,16.682274247491637
2022-12-23T18:37:57.672Z,13.307692307692308
2022-12-23T18:47:06.725Z,11.364548494983278
2022-12-23T18:53:28.432Z,12.903010033444817
2022-12-23T18:59:49.833Z,12.779264214046822
2022-12-23T19:11:10.876Z,17.638795986622075
2022-12-23T19:17:31.679Z,14.692307692307692
2022-12-23T19:23:51.614Z,15.05685618729097
2022-12-23T19:43:07.607Z,11.622073578595318
2022-12-23T19:49:27.626Z,13.91304347826087
2022-12-23T19:55:47.868Z,12.979933110367893
2022-12-23T20:04:42.184Z,14.321070234113712
2022-12-23T20:14:45.333Z,12.26086956521739
2022-12-23T20:21:14.872Z,8.053511705685619
2022-12-23T20:27:41.127Z,10.675585284280936
2022-12-23T20:39:48.022Z,8.525083612040135
2022-12-23T20:46:11.681Z,4.622073578595318
2022-12-23T20:52:32.215Z,5.234113712374582
2022-12-23T20:58:52.720Z,6.966555183946488
2022-12-23T21:12:32.423Z,4.7324414715719065
2022-12-23T21:18:54.864Z,5.615384615384615
2022-12-23T21:25:30.355Z,5.354515050167224
2022-12-23T21:31:59.262Z,4.51505016722408
2022-12-23T21:42:35.548Z,3.2073578595317724
2022-12-23T21:49:10.716Z,3.2474916387959865
2022-12-23T21:57:52.385Z,3.678929765886288
2022-12-23T22:04:34.939Z,3.1872909698996654
2022-12-23T22:11:13.005Z,3.311036789297659
2022-12-23T22:18:39.984Z,3.2140468227424748
2022-12-23T22:25:48.784Z,3.5986622073578594
2022-12-23T22:32:15.952Z,2.963210702341137
2022-12-23T22:38:37.413Z,4.575250836120401
2022-12-23T22:44:57.952Z,4.210702341137123
2022-12-23T22:51:18.123Z,3.301003344481605
2022-12-23T22:57:37.568Z,3.9933110367892977
2022-12-23T23:03:57.610Z,2.488294314381271
2022-12-23T23:14:18.317Z,3.3344481605351173
2022-12-23T23:27:40.499Z,2.240802675585284
2022-12-23T23:34:00.603Z,2.20066889632107
2022-12-23T23:55:46.918Z,2.8260869565217392
